createdAt,value
2022-08-20T00:00:22.758Z,21.10
2022-08-20T00:02:55.132Z,20.73
2022-08-20T00:05:32.557Z,19.57
2022-08-20T00:08:00.391Z,18.80
2022-08-20T00:10:28.904Z,19.77
2022-08-20T00:12:56.322Z,20.13
2022-08-20T00:15:29.130Z,19.77
2022-08-20T00:17:57.175Z,19.80
2022-08-20T00:20:27.574Z,19.47
2022-08-20T00:22:55.117Z,19.70
2022-08-20T00:25:22.884Z,18.93
2022-08-20T00:27:49.807Z,20.67
2022-08-20T00:30:17.474Z,19.93
2022-08-20T00:32:47.336Z,21.17
2022-08-20T00:35:16.907Z,19.33
2022-08-20T00:37:44.138Z,20.47
2022-08-20T00:40:22.045Z,20.77
2022-08-20T00:42:59.846Z,20.70
2022-08-20T00:45:30.189Z,20.17
2022-08-20T00:47:57.882Z,19.97
2022-08-20T00:50:43.367Z,18.83
2022-08-20T00:53:10.218Z,19.50
2022-08-20T00:55:37.388Z,19.80
2022-08-20T00:58:08.943Z,18.43
2022-08-20T01:00:46.086Z,19.37
2022-08-20T01:03:15.801Z,19.83
2022-08-20T01:05:45.214Z,19.40
2022-08-20T01:08:12.512Z,19.30
2022-08-20T01:10:41.914Z,18.83
2022-08-20T01:13:13.450Z,19.77
2022-08-20T01:15:43.868Z,20.57
2022-08-20T01:18:18.235Z,20.17
2022-08-20T01:20:51.796Z,21.47
2022-08-20T01:24:03.023Z,20.97
2022-08-20T01:26:49.230Z,21.13
2022-08-20T01:29:19.659Z,22.93
2022-08-20T01:31:46.718Z,23.10
2022-08-20T01:34:17.010Z,25.50
2022-08-20T01:36:53.662Z,25.30
2022-08-20T01:39:26.959Z,29.13
2022-08-20T01:42:27.569Z,26.03
2022-08-20T01:44:54.386Z,28.37
2022-08-20T01:47:38.473Z,25.57
2022-08-20T01:50:22.902Z,26.33
2022-08-20T01:53:04.319Z,24.10
2022-08-20T01:55:32.389Z,23.20
2022-08-20T01:58:00.845Z,23.37
2022-08-20T02:00:27.968Z,23.37
2022-08-20T02:02:54.837Z,23.33
2022-08-20T02:05:22.964Z,23.47
2022-08-20T02:07:50.381Z,22.80
2022-08-20T02:10:18.403Z,21.20
2022-08-20T02:12:45.278Z,20.37
2022-08-20T02:15:12.970Z,18.30
2022-08-20T02:17:41.803Z,19.10
2022-08-20T02:20:23.628Z,18.23
2022-08-20T02:22:56.584Z,17.93
2022-08-20T02:25:26.331Z,18.30
2022-08-20T02:27:54.790Z,19.33
2022-08-20T02:30:27.491Z,19.07
2022-08-20T02:32:56.906Z,20.53
2022-08-20T02:35:25.352Z,20.93
2022-08-20T02:37:53.449Z,21.03
2022-08-20T02:40:27.350Z,22.20
2022-08-20T02:43:01.578Z,21.57
2022-08-20T02:45:31.305Z,20.23
2022-08-20T02:47:59.360Z,20.87
2022-08-20T02:50:28.051Z,21.80
2022-08-20T02:52:54.937Z,21.67
2022-08-20T02:55:27.214Z,22.67
2022-08-20T02:58:01.438Z,22.93
2022-08-20T03:00:32.107Z,23.27
2022-08-20T03:03:06.503Z,24.23
2022-08-20T03:05:33.855Z,24.23
2022-08-20T03:08:00.780Z,24.03
2022-08-20T03:10:33.550Z,25.03
2022-08-20T03:13:02.547Z,24.13
2022-08-20T03:15:31.719Z,24.70
2022-08-20T03:17:58.856Z,26.70
2022-08-20T03:20:27.123Z,26.93
2022-08-20T03:22:54.023Z,27.20
2022-08-20T03:25:20.994Z,29.47
2022-08-20T03:27:53.948Z,28.63
2022-08-20T03:30:24.246Z,30.20
2022-08-20T03:32:51.514Z,28.27
2022-08-20T03:35:20.395Z,31.40
2022-08-20T03:37:48.580Z,30.60
2022-08-20T03:40:20.199Z,30.83
2022-08-20T03:42:47.031Z,29.83
2022-08-20T03:45:18.510Z,35.13
2022-08-20T03:47:48.364Z,32.20
2022-08-20T03:50:23.093Z,32.50
2022-08-20T03:52:54.717Z,33.93
2022-08-20T03:55:23.144Z,34.97
2022-08-20T03:57:53.782Z,35.77
2022-08-20T04:00:23.910Z,34.57
2022-08-20T04:02:50.806Z,35.43
2022-08-20T04:05:17.744Z,34.33
2022-08-20T04:07:44.977Z,34.93
2022-08-20T04:10:13.571Z,35.53
2022-08-20T04:12:48.779Z,36.23
2022-08-20T04:15:20.739Z,35.37
2022-08-20T04:17:50.289Z,37.50
2022-08-20T04:20:22.714Z,39.30
2022-08-20T04:22:59.031Z,39.07
2022-08-20T04:25:28.470Z,39.77
2022-08-20T04:28:00.764Z,37.77
2022-08-20T04:30:28.765Z,37.27
2022-08-20T04:32:56.147Z,38.27
2022-08-20T04:35:26.758Z,39.43
2022-08-20T04:38:06.613Z,42.20
2022-08-20T04:40:54.346Z,38.83
2022-08-20T04:43:23.304Z,42.77
2022-08-20T04:45:51.992Z,36.80
2022-08-20T04:48:23.070Z,42.37
2022-08-20T04:50:52.457Z,41.57
2022-08-20T04:53:25.749Z,45.00
2022-08-20T04:55:55.100Z,42.40
2022-08-20T04:58:26.270Z,42.60
2022-08-20T05:01:01.110Z,44.63
2022-08-20T05:03:28.771Z,44.63
2022-08-20T05:05:56.895Z,41.30
2022-08-20T05:08:25.728Z,41.93
2022-08-20T05:11:06.767Z,39.77
2022-08-20T05:13:42.719Z,41.50
2022-08-20T05:16:09.968Z,39.10
2022-08-20T05:18:37.138Z,40.67
2022-08-20T05:21:06.023Z,40.97
2022-08-20T05:23:35.211Z,37.47
2022-08-20T05:26:07.676Z,35.43
2022-08-20T05:28:38.705Z,34.93
2022-08-20T05:31:22.067Z,33.63
2022-08-20T05:33:51.009Z,33.63
2022-08-20T05:36:17.825Z,30.73
2022-08-20T05:38:49.623Z,31.93
2022-08-20T05:41:27.687Z,31.93
2022-08-20T05:43:57.351Z,29.73
2022-08-20T05:46:24.209Z,27.90
2022-08-20T05:48:51.069Z,32.00
2022-08-20T05:51:17.963Z,27.80
2022-08-20T05:53:44.805Z,27.13
2022-08-20T05:56:11.743Z,25.47
2022-08-20T05:58:38.855Z,27.20
2022-08-20T06:01:06.159Z,25.33
2022-08-20T06:03:51.705Z,26.30
2022-08-20T06:06:38.793Z,26.03
2022-08-20T06:09:05.990Z,25.33
2022-08-20T06:11:37.165Z,24.60
2022-08-20T06:14:05.515Z,24.00
2022-08-20T06:16:32.684Z,24.57
2022-08-20T06:19:00.075Z,25.10
2022-08-20T06:21:30.093Z,25.33
2022-08-20T06:23:59.322Z,23.60
2022-08-20T06:26:30.181Z,24.47
2022-08-20T06:28:59.131Z,22.83
2022-08-20T06:31:27.329Z,24.47
2022-08-20T06:33:54.551Z,24.03
2022-08-20T06:36:21.520Z,22.67
2022-08-20T06:38:48.303Z,24.13
2022-08-20T06:41:15.108Z,23.73
2022-08-20T06:43:41.883Z,23.27
2022-08-20T06:46:08.842Z,22.80
2022-08-20T06:48:36.639Z,23.00
2022-08-20T06:51:04.219Z,22.80
2022-08-20T06:53:31.071Z,23.03
2022-08-20T06:55:59.306Z,22.63
2022-08-20T06:58:36.955Z,21.70
2022-08-20T07:01:09.511Z,22.20
2022-08-20T07:03:42.281Z,23.60
2022-08-20T07:06:21.216Z,23.43
2022-08-20T07:08:48.090Z,23.67
2022-08-20T07:11:14.911Z,23.17
2022-08-20T07:13:42.048Z,23.93
2022-08-20T07:16:09.069Z,24.93
2022-08-20T07:18:36.404Z,22.70
2022-08-20T07:21:03.881Z,23.97
2022-08-20T07:23:31.675Z,24.73
2022-08-20T07:25:59.545Z,25.30
2022-08-20T07:28:32.374Z,25.57
2022-08-20T07:31:18.008Z,25.13
2022-08-20T07:33:50.210Z,26.10
2022-08-20T07:36:18.181Z,26.10
2022-08-20T07:38:47.232Z,26.03
2022-08-20T07:41:14.764Z,25.43
2022-08-20T07:43:45.205Z,27.43
2022-08-20T07:46:13.551Z,26.83
2022-08-20T07:48:46.121Z,24.10
2022-08-20T07:51:17.795Z,24.40
2022-08-20T07:53:46.737Z,26.87
2022-08-20T07:56:17.242Z,25.90
2022-08-20T07:58:50.625Z,25.20
2022-08-20T08:01:26.018Z,25.93
2022-08-20T08:03:53.290Z,26.33
2022-08-20T08:06:29.230Z,28.00
2022-08-20T08:09:10.244Z,27.97
2022-08-20T08:11:39.645Z,26.93
2022-08-20T08:14:11.238Z,27.73
2022-08-20T08:16:39.791Z,27.70
2022-08-20T08:19:09.626Z,27.53
2022-08-20T08:21:36.540Z,28.83
2022-08-20T08:24:03.750Z,30.73
2022-08-20T08:26:30.673Z,30.43
2022-08-20T08:28:58.322Z,29.33
2022-08-20T08:31:25.827Z,32.27
2022-08-20T08:33:52.941Z,32.43
2022-08-20T08:36:19.885Z,33.73
2022-08-20T08:38:46.977Z,32.23
2022-08-20T08:41:24.920Z,33.87
2022-08-20T08:43:53.968Z,35.03
2022-08-20T08:46:25.966Z,33.97
2022-08-20T08:48:57.450Z,35.87
2022-08-20T08:51:35.422Z,34.40
2022-08-20T08:54:06.715Z,33.43
2022-08-20T08:56:35.133Z,34.73
2022-08-20T08:59:08.643Z,33.47
2022-08-20T09:01:53.861Z,35.77
2022-08-20T09:04:31.616Z,35.17
2022-08-20T09:07:01.681Z,34.87
2022-08-20T09:09:35.945Z,34.43
2022-08-20T09:12:07.669Z,33.20
2022-08-20T09:14:35.810Z,34.13
2022-08-20T09:17:02.969Z,32.97
2022-08-20T09:19:30.256Z,33.17
2022-08-20T09:21:57.371Z,32.83
2022-08-20T09:24:24.831Z,32.83
2022-08-20T09:26:51.630Z,32.27
2022-08-20T09:29:18.473Z,32.30
2022-08-20T09:31:45.385Z,32.80
2022-08-20T09:34:13.671Z,31.93
2022-08-20T09:36:40.478Z,35.23
2022-08-20T09:39:07.406Z,32.40
2022-08-20T09:41:34.731Z,31.50
2022-08-20T09:44:02.371Z,29.30
2022-08-20T09:46:29.229Z,30.17
2022-08-20T09:48:56.046Z,29.53
2022-08-20T09:51:23.289Z,33.77
2022-08-20T09:53:50.549Z,28.80
2022-08-20T09:56:17.952Z,32.20
2022-08-20T09:58:52.832Z,29.00
2022-08-20T10:01:22.078Z,28.40
2022-08-20T10:03:50.334Z,25.30
2022-08-20T10:06:20.237Z,27.30
2022-08-20T10:08:48.618Z,24.57
2022-08-20T10:11:16.319Z,24.83
2022-08-20T10:13:45.162Z,25.57
2022-08-20T10:16:12.093Z,27.23
2022-08-20T10:18:38.879Z,25.53
2022-08-20T10:21:12.811Z,24.30
2022-08-20T10:23:39.645Z,23.53
2022-08-20T10:26:08.579Z,22.83
2022-08-20T10:28:35.993Z,21.63
2022-08-20T10:31:05.685Z,20.23
2022-08-20T10:33:35.334Z,19.53
2022-08-20T10:36:13.948Z,18.07
2022-08-20T10:38:41.225Z,17.67
2022-08-20T10:41:08.746Z,17.27
2022-08-20T10:43:35.867Z,15.73
2022-08-20T10:46:02.890Z,15.83
2022-08-20T10:48:29.939Z,15.40
2022-08-20T10:50:56.754Z,14.73
2022-08-20T10:53:23.774Z,14.47
2022-08-20T10:55:50.590Z,12.53
2022-08-20T10:58:17.442Z,12.77
2022-08-20T11:00:47.336Z,13.53
2022-08-20T11:03:14.229Z,12.00
2022-08-20T11:05:41.282Z,10.73
2022-08-20T11:08:08.134Z,10.30
2022-08-20T11:10:38.360Z,10.37
2022-08-20T11:13:07.129Z,10.30
2022-08-20T11:15:36.866Z,9.70
2022-08-20T11:18:04.177Z,8.97
2022-08-20T11:20:32.007Z,9.17
2022-08-20T11:22:59.546Z,8.50
2022-08-20T11:25:27.351Z,8.20
2022-08-20T11:27:56.065Z,7.97
2022-08-20T11:30:26.089Z,7.87
2022-08-20T11:32:53.216Z,8.17
2022-08-20T11:38:10.397Z,9.03
2022-08-20T11:40:37.334Z,10.30
2022-08-20T11:43:14.542Z,8.00
2022-08-20T11:45:43.167Z,8.47
2022-08-20T11:48:09.966Z,9.07
2022-08-20T11:50:36.815Z,9.10
2022-08-20T11:53:03.675Z,9.17
2022-08-20T11:55:31.234Z,9.03
2022-08-20T11:58:00.849Z,8.77
2022-08-20T12:00:33.553Z,8.97
2022-08-20T12:03:02.095Z,9.93
2022-08-20T12:05:30.006Z,9.60
2022-08-20T12:07:59.995Z,9.20
2022-08-20T12:10:28.185Z,9.80
2022-08-20T12:12:56.669Z,9.47
2022-08-20T12:15:25.300Z,10.57
2022-08-20T12:17:52.250Z,9.27
2022-08-20T12:20:19.486Z,9.50
2022-08-20T12:22:46.605Z,10.40
2022-08-20T12:25:13.722Z,8.80
2022-08-20T12:27:41.451Z,9.70
2022-08-20T12:30:12.570Z,8.37
2022-08-20T12:32:40.025Z,8.33
2022-08-20T12:35:08.431Z,9.70
2022-08-20T12:37:35.925Z,8.23
2022-08-20T12:40:06.461Z,8.07
2022-08-20T12:42:33.394Z,8.20
2022-08-20T12:45:00.458Z,7.33
2022-08-20T12:47:33.231Z,7.80
2022-08-20T12:50:07.304Z,7.37
2022-08-20T12:52:34.450Z,7.83
2022-08-20T12:55:02.196Z,7.20
2022-08-20T12:57:32.244Z,7.30
2022-08-20T13:00:04.893Z,7.70
2022-08-20T13:02:31.908Z,8.07
2022-08-20T13:05:04.345Z,6.87
2022-08-20T13:07:32.598Z,7.23
2022-08-20T13:09:59.910Z,7.47
2022-08-20T13:12:28.014Z,7.80
2022-08-20T13:14:54.873Z,7.63
2022-08-20T13:17:38.179Z,6.73
2022-08-20T13:20:10.386Z,7.37
2022-08-20T13:22:37.478Z,8.70
2022-08-20T13:25:06.296Z,7.87
2022-08-20T13:27:33.270Z,8.27
2022-08-20T13:30:00.177Z,7.80
2022-08-20T13:32:27.067Z,8.47
2022-08-20T13:34:53.951Z,8.13
2022-08-20T13:37:25.632Z,8.40
2022-08-20T13:39:53.760Z,8.30
2022-08-20T13:42:21.765Z,8.27
2022-08-20T13:44:49.239Z,9.97
2022-08-20T13:47:18.383Z,9.57
2022-08-20T13:49:46.027Z,10.80
2022-08-20T13:52:13.118Z,10.67
2022-08-20T13:54:43.987Z,11.83
2022-08-20T13:57:16.951Z,12.63
2022-08-20T13:59:47.513Z,13.40
2022-08-20T14:02:16.053Z,14.53
2022-08-20T14:04:42.999Z,14.53
2022-08-20T14:07:32.261Z,14.93
2022-08-20T14:10:09.029Z,16.17
2022-08-20T14:12:36.761Z,17.10
2022-08-20T14:15:04.869Z,16.60
2022-08-20T14:17:35.034Z,17.77
2022-08-20T14:20:07.566Z,17.90
2022-08-20T14:22:36.723Z,18.00
2022-08-20T14:25:08.670Z,18.30
2022-08-20T14:27:36.118Z,19.33
2022-08-20T14:30:06.278Z,18.33
2022-08-20T14:32:33.366Z,19.30
2022-08-20T14:35:02.062Z,21.03
2022-08-20T14:37:33.315Z,19.13
2022-08-20T14:40:02.377Z,19.57
2022-08-20T14:42:30.026Z,20.00
2022-08-20T14:44:58.916Z,18.93
2022-08-20T14:47:28.386Z,19.93
2022-08-20T14:50:03.299Z,19.10
2022-08-20T14:52:36.312Z,19.30
2022-08-20T14:55:10.530Z,23.50
2022-08-20T14:57:39.803Z,20.73
2022-08-20T15:00:10.046Z,21.80
2022-08-20T15:02:38.260Z,21.90
2022-08-20T15:05:07.207Z,22.40
2022-08-20T15:07:43.093Z,21.77
2022-08-20T15:10:15.926Z,22.80
2022-08-20T15:12:43.344Z,22.87
2022-08-20T15:15:15.719Z,22.17
2022-08-20T15:17:48.712Z,22.20
2022-08-20T15:20:20.579Z,21.80
2022-08-20T15:22:49.503Z,25.17
2022-08-20T15:25:20.090Z,23.47
2022-08-20T15:27:47.784Z,23.70
2022-08-20T15:30:21.095Z,23.93
2022-08-20T15:32:52.762Z,22.53
2022-08-20T15:35:26.001Z,21.73
2022-08-20T15:37:55.876Z,22.50
2022-08-20T15:40:28.180Z,26.30
2022-08-20T15:42:57.678Z,25.50
2022-08-20T15:45:25.412Z,23.87
2022-08-20T15:48:00.342Z,25.33
2022-08-20T15:51:04.801Z,23.30
2022-08-20T15:53:37.698Z,24.23
2022-08-20T15:56:17.309Z,25.33
2022-08-20T15:58:49.679Z,24.67
2022-08-20T16:01:39.006Z,24.47
2022-08-20T16:04:29.956Z,23.23
2022-08-20T16:07:01.383Z,24.63
2022-08-20T16:09:39.940Z,23.30
2022-08-20T16:12:08.615Z,23.43
2022-08-20T16:14:39.161Z,24.83
2022-08-20T16:17:37.893Z,23.27
2022-08-20T16:20:11.555Z,24.00
2022-08-20T16:22:43.237Z,28.77
2022-08-20T16:25:12.273Z,23.27
2022-08-20T16:28:04.882Z,27.77
2022-08-20T16:30:40.055Z,27.97
2022-08-20T16:33:16.203Z,27.00
2022-08-20T16:35:56.534Z,25.93
2022-08-20T16:38:32.095Z,26.40
2022-08-20T16:41:25.860Z,25.30
2022-08-20T16:43:57.086Z,25.93
2022-08-20T16:46:36.097Z,25.30
2022-08-20T16:49:13.358Z,24.73
2022-08-20T16:51:51.779Z,26.83
2022-08-20T16:54:29.695Z,27.80
2022-08-20T16:57:01.300Z,27.27
2022-08-20T16:59:28.807Z,28.13
2022-08-20T17:02:10.984Z,26.90
2022-08-20T17:04:50.494Z,26.77
2022-08-20T17:07:56.480Z,30.50
2022-08-20T17:10:29.526Z,28.43
2022-08-20T17:13:19.173Z,27.50
2022-08-20T17:15:54.261Z,27.57
2022-08-20T17:18:21.464Z,25.77
2022-08-20T17:20:48.411Z,26.70
2022-08-20T17:23:18.428Z,28.50
2022-08-20T17:25:55.807Z,29.77
2022-08-20T17:28:23.300Z,31.40
2022-08-20T17:30:51.110Z,28.30
2022-08-20T17:33:35.473Z,30.70
2022-08-20T17:36:08.973Z,31.23
2022-08-20T17:38:47.112Z,34.27
2022-08-20T17:41:21.819Z,36.33
2022-08-20T17:44:07.068Z,35.80
2022-08-20T17:46:41.434Z,32.07
2022-08-20T17:49:10.760Z,27.47
2022-08-20T17:51:44.325Z,28.83
2022-08-20T17:54:29.770Z,32.00
2022-08-20T17:57:03.406Z,28.40
2022-08-20T17:59:59.670Z,32.47
2022-08-20T18:02:26.170Z,30.77
2022-08-20T18:04:54.640Z,31.57
2022-08-20T18:07:26.409Z,28.67
2022-08-20T18:10:02.202Z,31.43
2022-08-20T18:12:51.061Z,33.67
2022-08-20T18:15:24.308Z,31.43
2022-08-20T18:17:51.561Z,30.87
2022-08-20T18:20:40.051Z,32.27
2022-08-20T18:23:19.271Z,31.30
2022-08-20T18:25:51.351Z,34.67
2022-08-20T18:28:29.028Z,28.93
2022-08-20T18:31:00.786Z,32.53
2022-08-20T18:33:29.847Z,31.10
2022-08-20T18:36:17.978Z,26.83
2022-08-20T18:38:59.652Z,15.90
2022-08-20T18:42:01.209Z,17.20
2022-08-20T18:44:37.959Z,13.17
2022-08-20T18:47:07.383Z,12.80
2022-08-20T18:49:37.347Z,12.03
2022-08-20T18:52:32.235Z,11.70
2022-08-20T18:55:02.451Z,11.97
2022-08-20T18:57:41.544Z,12.60
2022-08-20T19:00:12.533Z,11.60
2022-08-20T19:02:58.193Z,11.13
2022-08-20T19:05:31.374Z,11.37
2022-08-20T19:08:01.378Z,12.47
2022-08-20T19:10:39.900Z,12.33
2022-08-20T19:13:16.307Z,12.77
2022-08-20T19:15:50.881Z,12.37
2022-08-20T19:18:40.790Z,13.67
2022-08-20T19:21:15.773Z,12.67
2022-08-20T19:23:50.192Z,13.30
2022-08-20T19:26:25.298Z,13.60
2022-08-20T19:29:01.818Z,11.77
2022-08-20T19:31:32.541Z,11.70
2022-08-20T19:34:18.975Z,12.10
2022-08-20T19:36:55.418Z,10.67
2022-08-20T19:39:24.718Z,12.70
2022-08-20T19:42:01.592Z,11.37
2022-08-20T19:45:06.762Z,12.00
2022-08-20T19:48:08.026Z,12.37
2022-08-20T19:50:42.470Z,14.67
2022-08-20T19:53:30.723Z,13.50
2022-08-20T19:56:04.270Z,12.73
2022-08-20T19:58:33.490Z,12.67
2022-08-20T20:01:02.535Z,14.77
2022-08-20T20:03:40.255Z,14.23
2022-08-20T20:06:17.571Z,13.93
2022-08-20T20:08:58.894Z,15.43
2022-08-20T20:11:41.509Z,14.87
2022-08-20T20:14:11.803Z,17.17
2022-08-20T20:16:40.166Z,15.27
2022-08-20T20:19:27.844Z,13.73
2022-08-20T20:22:18.832Z,14.97
2022-08-20T20:24:58.462Z,15.27
2022-08-20T20:27:27.183Z,15.77
2022-08-20T20:30:04.589Z,14.40
2022-08-20T20:32:33.823Z,14.77
2022-08-20T20:35:04.064Z,15.67
2022-08-20T20:37:49.104Z,14.83
2022-08-20T20:40:28.724Z,15.20
2022-08-20T20:43:03.995Z,17.23
2022-08-20T20:45:35.674Z,15.67
2022-08-20T20:48:13.041Z,16.40
2022-08-20T20:50:40.392Z,16.10
2022-08-20T20:53:07.473Z,16.77
2022-08-20T20:55:37.378Z,14.10
2022-08-20T20:58:04.827Z,16.37
2022-08-20T21:00:33.829Z,16.00
2022-08-20T21:03:03.747Z,16.27
2022-08-20T21:05:32.244Z,15.30
2022-08-20T21:08:02.306Z,15.43
2022-08-20T21:10:32.327Z,14.30
2022-08-20T21:13:00.804Z,14.50
2022-08-20T21:15:27.823Z,16.10
2022-08-20T21:17:57.788Z,14.27
2022-08-20T21:20:24.626Z,14.30
2022-08-20T21:22:51.574Z,14.60
2022-08-20T21:25:21.215Z,14.13
2022-08-20T21:27:51.665Z,14.47
2022-08-20T21:30:21.439Z,14.30
2022-08-20T21:32:48.681Z,14.50
2022-08-20T21:35:15.817Z,14.20
2022-08-20T21:37:42.665Z,15.70
2022-08-20T21:40:10.851Z,14.10
2022-08-20T21:42:39.086Z,14.10
2022-08-20T21:45:13.707Z,13.67
2022-08-20T21:47:41.242Z,13.90
2022-08-20T21:50:08.746Z,13.67
2022-08-20T21:52:36.091Z,12.80
2022-08-20T21:55:03.031Z,14.00
2022-08-20T21:57:33.238Z,13.47
2022-08-20T22:00:02.368Z,12.93
2022-08-20T22:02:32.211Z,12.80
2022-08-20T22:04:59.047Z,12.80
2022-08-20T22:07:25.931Z,12.60
2022-08-20T22:09:52.823Z,12.23
2022-08-20T22:12:23.275Z,15.17
2022-08-20T22:14:50.603Z,11.80
2022-08-20T22:17:17.489Z,11.17
2022-08-20T22:19:44.756Z,12.23
2022-08-20T22:22:13.290Z,11.27
2022-08-20T22:24:40.470Z,11.20
2022-08-20T22:27:07.892Z,11.10
2022-08-20T22:29:34.791Z,11.03
2022-08-20T22:32:02.160Z,11.57
2022-08-20T22:34:32.374Z,12.13
2022-08-20T22:37:01.495Z,10.93
2022-08-20T22:39:28.557Z,12.80
2022-08-20T22:41:55.475Z,11.00
2022-08-20T22:44:22.471Z,11.10
2022-08-20T22:46:55.189Z,11.63
2022-08-20T22:49:27.042Z,11.47
2022-08-20T22:51:54.111Z,11.07
2022-08-20T22:54:24.761Z,11.33
2022-08-20T22:56:52.754Z,14.13
2022-08-20T22:59:20.672Z,10.30
2022-08-20T23:01:48.091Z,10.53
2022-08-20T23:04:25.046Z,11.03
2022-08-20T23:06:52.844Z,11.53
2022-08-20T23:09:21.091Z,10.57
2022-08-20T23:11:48.435Z,11.07
2022-08-20T23:14:15.567Z,10.60
2022-08-20T23:16:44.924Z,11.47
2022-08-20T23:19:21.354Z,10.97
2022-08-20T23:21:51.539Z,9.83
2022-08-20T23:24:19.125Z,10.23
2022-08-20T23:26:52.878Z,11.27
2022-08-20T23:29:25.139Z,10.00
2022-08-20T23:31:54.232Z,9.90
2022-08-20T23:34:21.039Z,10.13
2022-08-20T23:36:48.184Z,9.40
2022-08-20T23:39:15.073Z,10.37
2022-08-20T23:41:47.062Z,10.53
2022-08-20T23:44:26.425Z,12.03
2022-08-20T23:47:00.662Z,9.43
2022-08-20T23:49:29.143Z,10.87
2022-08-20T23:51:57.664Z,10.57
2022-08-20T23:54:24.530Z,10.07
2022-08-20T23:56:51.417Z,11.63
2022-08-20T23:59:24.329Z,9.63
